sensor_id;sensor_type;location;lat;lon;timestamp;P1;durP1;ratioP1;P2;durP2;ratioP2
19998;SDS011;10160;50.926;4.374;2023-02-15T00:01:36;60.43;;;31.03;;
19998;SDS011;10160;50.926;4.374;2023-02-15T00:04:03;58.53;;;31.97;;
19998;SDS011;10160;50.926;4.374;2023-02-15T00:06:30;69.40;;;31.63;;
19998;SDS011;10160;50.926;4.374;2023-02-15T00:08:56;68.10;;;32.77;;
19998;SDS011;10160;50.926;4.374;2023-02-15T00:11:22;65.17;;;32.77;;
19998;SDS011;10160;50.926;4.374;2023-02-15T00:16:46;62.90;;;32.30;;
19998;SDS011;10160;50.926;4.374;2023-02-15T00:19:12;70.10;;;33.37;;
19998;SDS011;10160;50.926;4.374;2023-02-15T00:21:40;64.03;;;31.93;;
19998;SDS011;10160;50.926;4.374;2023-02-15T00:24:07;64.70;;;33.43;;
19998;SDS011;10160;50.926;4.374;2023-02-15T00:26:35;66.47;;;33.50;;
19998;SDS011;10160;50.926;4.374;2023-02-15T00:29:02;71.53;;;36.17;;
19998;SDS011;10160;50.926;4.374;2023-02-15T00:31:31;61.77;;;32.20;;
19998;SDS011;10160;50.926;4.374;2023-02-15T00:34:01;66.57;;;33.93;;
19998;SDS011;10160;50.926;4.374;2023-02-15T00:36:27;66.30;;;34.27;;
19998;SDS011;10160;50.926;4.374;2023-02-15T00:38:53;72.37;;;35.87;;
19998;SDS011;10160;50.926;4.374;2023-02-15T00:41:19;67.53;;;35.30;;
19998;SDS011;10160;50.926;4.374;2023-02-15T00:43:44;74.83;;;37.83;;
19998;SDS011;10160;50.926;4.374;2023-02-15T00:46:12;77.30;;;37.23;;
19998;SDS011;10160;50.926;4.374;2023-02-15T00:48:38;78.33;;;37.73;;
19998;SDS011;10160;50.926;4.374;2023-02-15T00:51:03;79.73;;;40.20;;
19998;SDS011;10160;50.926;4.374;2023-02-15T00:53:29;78.93;;;38.13;;
19998;SDS011;10160;50.926;4.374;2023-02-15T00:55:55;76.17;;;39.37;;
19998;SDS011;10160;50.926;4.374;2023-02-15T00:58:21;82.23;;;39.60;;
19998;SDS011;10160;50.926;4.374;2023-02-15T01:00:47;80.10;;;39.17;;
19998;SDS011;10160;50.926;4.374;2023-02-15T01:03:14;84.23;;;39.23;;
19998;SDS011;10160;50.926;4.374;2023-02-15T01:05:41;81.23;;;39.13;;
19998;SDS011;10160;50.926;4.374;2023-02-15T01:08:07;81.37;;;38.57;;
19998;SDS011;10160;50.926;4.374;2023-02-15T01:10:33;84.93;;;41.27;;
19998;SDS011;10160;50.926;4.374;2023-02-15T01:13:00;70.83;;;36.03;;
19998;SDS011;10160;50.926;4.374;2023-02-15T01:15:26;66.97;;;35.07;;
19998;SDS011;10160;50.926;4.374;2023-02-15T01:17:52;66.93;;;34.50;;
19998;SDS011;10160;50.926;4.374;2023-02-15T01:20:25;71.27;;;34.37;;
19998;SDS011;10160;50.926;4.374;2023-02-15T01:22:52;69.13;;;34.77;;
19998;SDS011;10160;50.926;4.374;2023-02-15T01:25:19;71.73;;;35.43;;
19998;SDS011;10160;50.926;4.374;2023-02-15T01:27:46;67.63;;;34.37;;
19998;SDS011;10160;50.926;4.374;2023-02-15T01:30:13;75.10;;;35.37;;
19998;SDS011;10160;50.926;4.374;2023-02-15T01:32:39;69.80;;;34.83;;
19998;SDS011;10160;50.926;4.374;2023-02-15T01:35:05;71.67;;;34.60;;
19998;SDS011;10160;50.926;4.374;2023-02-15T01:37:32;69.80;;;35.10;;
19998;SDS011;10160;50.926;4.374;2023-02-15T01:39:58;72.00;;;35.97;;
19998;SDS011;10160;50.926;4.374;2023-02-15T01:42:25;70.73;;;35.07;;
19998;SDS011;10160;50.926;4.374;2023-02-15T01:44:56;74.00;;;36.60;;
19998;SDS011;10160;50.926;4.374;2023-02-15T01:50:17;76.90;;;37.33;;
19998;SDS011;10160;50.926;4.374;2023-02-15T01:55:46;70.03;;;35.77;;
19998;SDS011;10160;50.926;4.374;2023-02-15T01:58:14;76.37;;;36.57;;
19998;SDS011;10160;50.926;4.374;2023-02-15T02:00:41;75.60;;;37.23;;
19998;SDS011;10160;50.926;4.374;2023-02-15T02:03:07;74.07;;;36.17;;
19998;SDS011;10160;50.926;4.374;2023-02-15T02:05:32;70.73;;;35.10;;
19998;SDS011;10160;50.926;4.374;2023-02-15T02:07:59;76.33;;;34.43;;
19998;SDS011;10160;50.926;4.374;2023-02-15T02:10:27;76.77;;;36.83;;
19998;SDS011;10160;50.926;4.374;2023-02-15T02:12:54;70.77;;;36.30;;
19998;SDS011;10160;50.926;4.374;2023-02-15T02:15:27;74.90;;;36.07;;
19998;SDS011;10160;50.926;4.374;2023-02-15T02:18:56;72.57;;;34.93;;
19998;SDS011;10160;50.926;4.374;2023-02-15T02:29:32;71.83;;;35.50;;
19998;SDS011;10160;50.926;4.374;2023-02-15T02:32:59;70.23;;;34.40;;
19998;SDS011;10160;50.926;4.374;2023-02-15T02:35:19;74.27;;;35.80;;
19998;SDS011;10160;50.926;4.374;2023-02-15T02:41:13;75.37;;;35.63;;
19998;SDS011;10160;50.926;4.374;2023-02-15T02:43:51;78.90;;;36.97;;
19998;SDS011;10160;50.926;4.374;2023-02-15T02:49:58;71.43;;;35.77;;
19998;SDS011;10160;50.926;4.374;2023-02-15T02:55:03;73.83;;;36.50;;
19998;SDS011;10160;50.926;4.374;2023-02-15T02:57:36;69.60;;;34.83;;
19998;SDS011;10160;50.926;4.374;2023-02-15T03:00:10;69.17;;;34.07;;
19998;SDS011;10160;50.926;4.374;2023-02-15T03:02:39;73.40;;;35.20;;
19998;SDS011;10160;50.926;4.374;2023-02-15T03:05:12;72.17;;;35.80;;
19998;SDS011;10160;50.926;4.374;2023-02-15T03:07:41;76.53;;;36.07;;
19998;SDS011;10160;50.926;4.374;2023-02-15T03:10:07;67.23;;;34.93;;
19998;SDS011;10160;50.926;4.374;2023-02-15T03:12:35;74.90;;;36.10;;
19998;SDS011;10160;50.926;4.374;2023-02-15T03:15:04;76.40;;;35.23;;
19998;SDS011;10160;50.926;4.374;2023-02-15T03:17:42;73.93;;;36.70;;
19998;SDS011;10160;50.926;4.374;2023-02-15T03:20:14;71.33;;;34.23;;
19998;SDS011;10160;50.926;4.374;2023-02-15T03:22:58;66.03;;;33.47;;
19998;SDS011;10160;50.926;4.374;2023-02-15T03:25:29;72.40;;;33.53;;
19998;SDS011;10160;50.926;4.374;2023-02-15T03:28:03;66.30;;;32.47;;
19998;SDS011;10160;50.926;4.374;2023-02-15T03:30:33;67.63;;;34.00;;
19998;SDS011;10160;50.926;4.374;2023-02-15T03:33:01;65.97;;;33.80;;
19998;SDS011;10160;50.926;4.374;2023-02-15T03:35:31;71.83;;;33.37;;
19998;SDS011;10160;50.926;4.374;2023-02-15T03:38:04;68.13;;;33.13;;
19998;SDS011;10160;50.926;4.374;2023-02-15T03:40:37;68.47;;;34.33;;
19998;SDS011;10160;50.926;4.374;2023-02-15T03:43:26;69.40;;;33.20;;
19998;SDS011;10160;50.926;4.374;2023-02-15T03:45:56;68.10;;;33.80;;
19998;SDS011;10160;50.926;4.374;2023-02-15T03:48:28;67.27;;;32.13;;
19998;SDS011;10160;50.926;4.374;2023-02-15T03:51:00;62.47;;;31.70;;
19998;SDS011;10160;50.926;4.374;2023-02-15T03:53:48;64.27;;;32.03;;
19998;SDS011;10160;50.926;4.374;2023-02-15T03:56:15;56.73;;;30.87;;
19998;SDS011;10160;50.926;4.374;2023-02-15T03:58:41;64.93;;;30.90;;
19998;SDS011;10160;50.926;4.374;2023-02-15T04:01:45;59.37;;;30.13;;
19998;SDS011;10160;50.926;4.374;2023-02-15T04:04:26;63.40;;;31.23;;
19998;SDS011;10160;50.926;4.374;2023-02-15T04:07:05;60.23;;;31.53;;
19998;SDS011;10160;50.926;4.374;2023-02-15T04:09:32;67.83;;;33.07;;
19998;SDS011;10160;50.926;4.374;2023-02-15T04:12:16;61.70;;;32.07;;
19998;SDS011;10160;50.926;4.374;2023-02-15T04:14:41;68.57;;;33.07;;
19998;SDS011;10160;50.926;4.374;2023-02-15T04:17:25;64.40;;;30.53;;
19998;SDS011;10160;50.926;4.374;2023-02-15T04:19:51;56.80;;;29.50;;
19998;SDS011;10160;50.926;4.374;2023-02-15T04:22:35;53.60;;;29.07;;
19998;SDS011;10160;50.926;4.374;2023-02-15T04:25:19;64.83;;;30.33;;
19998;SDS011;10160;50.926;4.374;2023-02-15T04:27:47;66.20;;;31.20;;
19998;SDS011;10160;50.926;4.374;2023-02-15T04:30:15;63.33;;;31.27;;
19998;SDS011;10160;50.926;4.374;2023-02-15T04:32:43;61.90;;;29.53;;
19998;SDS011;10160;50.926;4.374;2023-02-15T04:35:09;63.23;;;31.43;;
19998;SDS011;10160;50.926;4.374;2023-02-15T04:37:36;64.67;;;31.83;;
19998;SDS011;10160;50.926;4.374;2023-02-15T04:40:05;61.57;;;29.77;;
19998;SDS011;10160;50.926;4.374;2023-02-15T04:42:32;55.53;;;29.57;;
19998;SDS011;10160;50.926;4.374;2023-02-15T04:44:58;55.97;;;30.37;;
19998;SDS011;10160;50.926;4.374;2023-02-15T04:47:23;57.77;;;30.60;;
19998;SDS011;10160;50.926;4.374;2023-02-15T04:49:49;55.50;;;28.43;;
19998;SDS011;10160;50.926;4.374;2023-02-15T04:52:15;60.70;;;30.03;;
19998;SDS011;10160;50.926;4.374;2023-02-15T04:54:43;63.30;;;31.50;;
19998;SDS011;10160;50.926;4.374;2023-02-15T04:57:09;60.63;;;29.77;;
19998;SDS011;10160;50.926;4.374;2023-02-15T04:59:35;58.20;;;29.60;;
19998;SDS011;10160;50.926;4.374;2023-02-15T05:02:00;65.53;;;30.13;;
19998;SDS011;10160;50.926;4.374;2023-02-15T05:04:26;60.13;;;31.47;;
19998;SDS011;10160;50.926;4.374;2023-02-15T05:06:52;57.13;;;29.63;;
19998;SDS011;10160;50.926;4.374;2023-02-15T05:09:18;60.23;;;31.50;;
19998;SDS011;10160;50.926;4.374;2023-02-15T05:11:44;58.57;;;29.07;;
19998;SDS011;10160;50.926;4.374;2023-02-15T05:14:09;55.47;;;29.30;;
19998;SDS011;10160;50.926;4.374;2023-02-15T05:16:35;59.43;;;29.97;;
19998;SDS011;10160;50.926;4.374;2023-02-15T05:19:01;61.83;;;30.73;;
19998;SDS011;10160;50.926;4.374;2023-02-15T05:21:26;63.93;;;29.80;;
19998;SDS011;10160;50.926;4.374;2023-02-15T05:23:52;62.23;;;29.97;;
19998;SDS011;10160;50.926;4.374;2023-02-15T05:26:21;62.57;;;31.63;;
19998;SDS011;10160;50.926;4.374;2023-02-15T05:29:07;62.63;;;30.90;;
19998;SDS011;10160;50.926;4.374;2023-02-15T05:31:34;72.40;;;33.27;;
19998;SDS011;10160;50.926;4.374;2023-02-15T05:34:00;65.07;;;32.10;;
19998;SDS011;10160;50.926;4.374;2023-02-15T05:36:26;63.97;;;33.40;;
19998;SDS011;10160;50.926;4.374;2023-02-15T05:38:53;66.00;;;32.80;;
19998;SDS011;10160;50.926;4.374;2023-02-15T05:41:19;65.60;;;33.67;;
19998;SDS011;10160;50.926;4.374;2023-02-15T05:43:45;63.90;;;32.63;;
19998;SDS011;10160;50.926;4.374;2023-02-15T05:46:11;66.23;;;33.43;;
19998;SDS011;10160;50.926;4.374;2023-02-15T05:48:38;62.33;;;32.10;;
19998;SDS011;10160;50.926;4.374;2023-02-15T05:51:07;63.53;;;32.33;;
19998;SDS011;10160;50.926;4.374;2023-02-15T05:53:41;65.53;;;33.50;;
19998;SDS011;10160;50.926;4.374;2023-02-15T05:56:09;66.60;;;33.43;;
19998;SDS011;10160;50.926;4.374;2023-02-15T05:58:36;66.57;;;33.10;;
19998;SDS011;10160;50.926;4.374;2023-02-15T06:01:07;63.43;;;32.07;;
19998;SDS011;10160;50.926;4.374;2023-02-15T06:03:42;67.33;;;32.53;;
19998;SDS011;10160;50.926;4.374;2023-02-15T06:06:08;60.43;;;32.33;;
19998;SDS011;10160;50.926;4.374;2023-02-15T06:08:34;64.30;;;32.33;;
19998;SDS011;10160;50.926;4.374;2023-02-15T06:11:01;68.47;;;34.60;;
19998;SDS011;10160;50.926;4.374;2023-02-15T06:13:27;68.00;;;34.20;;
19998;SDS011;10160;50.926;4.374;2023-02-15T06:15:53;65.97;;;33.20;;
19998;SDS011;10160;50.926;4.374;2023-02-15T06:18:19;65.73;;;34.73;;
19998;SDS011;10160;50.926;4.374;2023-02-15T06:20:45;74.63;;;36.67;;
19998;SDS011;10160;50.926;4.374;2023-02-15T06:23:11;66.40;;;34.23;;
19998;SDS011;10160;50.926;4.374;2023-02-15T06:25:37;77.47;;;35.67;;
19998;SDS011;10160;50.926;4.374;2023-02-15T06:28:02;69.73;;;35.47;;
19998;SDS011;10160;50.926;4.374;2023-02-15T06:30:28;73.70;;;34.40;;
19998;SDS011;10160;50.926;4.374;2023-02-15T06:32:54;72.13;;;34.07;;
19998;SDS011;10160;50.926;4.374;2023-02-15T06:35:19;67.73;;;33.87;;
19998;SDS011;10160;50.926;4.374;2023-02-15T06:37:46;73.17;;;35.90;;
19998;SDS011;10160;50.926;4.374;2023-02-15T06:40:12;76.40;;;34.87;;
19998;SDS011;10160;50.926;4.374;2023-02-15T06:42:38;73.83;;;35.60;;
19998;SDS011;10160;50.926;4.374;2023-02-15T06:45:04;72.67;;;36.33;;
19998;SDS011;10160;50.926;4.374;2023-02-15T06:47:30;73.20;;;36.63;;
19998;SDS011;10160;50.926;4.374;2023-02-15T06:49:56;66.17;;;34.47;;
19998;SDS011;10160;50.926;4.374;2023-02-15T06:52:22;73.83;;;37.47;;
19998;SDS011;10160;50.926;4.374;2023-02-15T06:54:48;68.00;;;36.40;;
19998;SDS011;10160;50.926;4.374;2023-02-15T06:57:14;71.30;;;36.37;;
19998;SDS011;10160;50.926;4.374;2023-02-15T06:59:40;76.17;;;36.60;;
19998;SDS011;10160;50.926;4.374;2023-02-15T07:02:05;72.37;;;36.30;;
19998;SDS011;10160;50.926;4.374;2023-02-15T07:04:31;70.03;;;35.53;;
19998;SDS011;10160;50.926;4.374;2023-02-15T07:06:57;72.80;;;35.30;;
19998;SDS011;10160;50.926;4.374;2023-02-15T07:09:22;76.77;;;36.40;;
19998;SDS011;10160;50.926;4.374;2023-02-15T07:11:48;69.87;;;35.67;;
19998;SDS011;10160;50.926;4.374;2023-02-15T07:14:33;65.40;;;35.17;;
19998;SDS011;10160;50.926;4.374;2023-02-15T07:16:58;72.30;;;36.10;;
19998;SDS011;10160;50.926;4.374;2023-02-15T07:19:24;74.20;;;37.00;;
19998;SDS011;10160;50.926;4.374;2023-02-15T07:21:50;76.03;;;37.17;;
19998;SDS011;10160;50.926;4.374;2023-02-15T07:24:16;78.00;;;36.93;;
19998;SDS011;10160;50.926;4.374;2023-02-15T07:26:42;72.90;;;36.20;;
19998;SDS011;10160;50.926;4.374;2023-02-15T07:29:08;81.07;;;37.87;;
19998;SDS011;10160;50.926;4.374;2023-02-15T07:31:33;77.73;;;38.77;;
19998;SDS011;10160;50.926;4.374;2023-02-15T07:33:59;69.47;;;33.93;;
19998;SDS011;10160;50.926;4.374;2023-02-15T07:36:25;68.80;;;35.53;;
19998;SDS011;10160;50.926;4.374;2023-02-15T07:38:51;69.03;;;35.03;;
19998;SDS011;10160;50.926;4.374;2023-02-15T07:41:16;72.73;;;35.00;;
19998;SDS011;10160;50.926;4.374;2023-02-15T07:43:43;69.17;;;34.63;;
19998;SDS011;10160;50.926;4.374;2023-02-15T07:46:11;67.23;;;34.77;;
19998;SDS011;10160;50.926;4.374;2023-02-15T07:48:40;67.87;;;36.00;;
19998;SDS011;10160;50.926;4.374;2023-02-15T07:51:06;75.00;;;37.90;;
19998;SDS011;10160;50.926;4.374;2023-02-15T07:53:33;70.50;;;34.67;;
19998;SDS011;10160;50.926;4.374;2023-02-15T07:56:00;72.90;;;36.73;;
19998;SDS011;10160;50.926;4.374;2023-02-15T07:58:32;74.27;;;35.17;;
19998;SDS011;10160;50.926;4.374;2023-02-15T08:01:21;70.77;;;36.50;;
19998;SDS011;10160;50.926;4.374;2023-02-15T08:03:51;73.23;;;35.70;;
19998;SDS011;10160;50.926;4.374;2023-02-15T08:06:18;78.57;;;34.97;;
19998;SDS011;10160;50.926;4.374;2023-02-15T08:08:44;70.63;;;35.13;;
19998;SDS011;10160;50.926;4.374;2023-02-15T08:11:31;69.13;;;34.90;;
19998;SDS011;10160;50.926;4.374;2023-02-15T08:14:05;76.07;;;36.70;;
19998;SDS011;10160;50.926;4.374;2023-02-15T08:16:40;70.53;;;33.73;;
19998;SDS011;10160;50.926;4.374;2023-02-15T08:21:38;76.00;;;37.77;;
19998;SDS011;10160;50.926;4.374;2023-02-15T08:24:05;75.93;;;38.50;;
19998;SDS011;10160;50.926;4.374;2023-02-15T08:26:33;74.50;;;39.20;;
19998;SDS011;10160;50.926;4.374;2023-02-15T08:28:59;68.63;;;35.70;;
19998;SDS011;10160;50.926;4.374;2023-02-15T08:31:25;70.03;;;36.87;;
19998;SDS011;10160;50.926;4.374;2023-02-15T08:33:52;70.57;;;35.43;;
19998;SDS011;10160;50.926;4.374;2023-02-15T08:36:20;69.90;;;32.20;;
19998;SDS011;10160;50.926;4.374;2023-02-15T08:38:48;64.43;;;32.80;;
19998;SDS011;10160;50.926;4.374;2023-02-15T08:43:44;62.43;;;28.80;;
19998;SDS011;10160;50.926;4.374;2023-02-15T08:46:12;55.83;;;28.17;;
19998;SDS011;10160;50.926;4.374;2023-02-15T08:48:39;57.07;;;27.90;;
19998;SDS011;10160;50.926;4.374;2023-02-15T08:51:15;53.97;;;27.40;;
19998;SDS011;10160;50.926;4.374;2023-02-15T08:53:49;56.03;;;28.47;;
19998;SDS011;10160;50.926;4.374;2023-02-15T08:56:20;51.13;;;25.23;;
19998;SDS011;10160;50.926;4.374;2023-02-15T08:58:47;53.30;;;26.63;;
19998;SDS011;10160;50.926;4.374;2023-02-15T09:01:14;57.73;;;25.87;;
19998;SDS011;10160;50.926;4.374;2023-02-15T09:03:51;52.30;;;25.17;;
19998;SDS011;10160;50.926;4.374;2023-02-15T09:06:20;51.00;;;25.27;;
19998;SDS011;10160;50.926;4.374;2023-02-15T09:08:47;47.63;;;24.17;;
19998;SDS011;10160;50.926;4.374;2023-02-15T09:11:15;52.13;;;25.23;;
19998;SDS011;10160;50.926;4.374;2023-02-15T09:13:53;47.87;;;23.17;;
19998;SDS011;10160;50.926;4.374;2023-02-15T09:16:25;43.87;;;22.87;;
19998;SDS011;10160;50.926;4.374;2023-02-15T09:18:52;51.20;;;25.17;;
19998;SDS011;10160;50.926;4.374;2023-02-15T09:21:20;47.23;;;24.20;;
19998;SDS011;10160;50.926;4.374;2023-02-15T09:23:48;49.53;;;24.17;;
19998;SDS011;10160;50.926;4.374;2023-02-15T09:26:16;52.07;;;24.53;;
19998;SDS011;10160;50.926;4.374;2023-02-15T09:28:46;47.13;;;22.83;;
19998;SDS011;10160;50.926;4.374;2023-02-15T09:31:20;46.13;;;22.40;;
19998;SDS011;10160;50.926;4.374;2023-02-15T09:33:48;47.67;;;21.57;;
19998;SDS011;10160;50.926;4.374;2023-02-15T09:36:16;45.80;;;22.27;;
19998;SDS011;10160;50.926;4.374;2023-02-15T09:38:47;50.27;;;22.27;;
19998;SDS011;10160;50.926;4.374;2023-02-15T09:41:25;47.87;;;22.70;;
19998;SDS011;10160;50.926;4.374;2023-02-15T09:44:22;50.40;;;23.80;;
19998;SDS011;10160;50.926;4.374;2023-02-15T09:57:58;42.43;;;19.53;;
19998;SDS011;10160;50.926;4.374;2023-02-15T10:06:48;45.43;;;18.57;;
19998;SDS011;10160;50.926;4.374;2023-02-15T10:12:05;42.10;;;19.97;;
19998;SDS011;10160;50.926;4.374;2023-02-15T10:15:10;49.63;;;21.83;;
19998;SDS011;10160;50.926;4.374;2023-02-15T10:20:43;40.47;;;21.20;;
19998;SDS011;10160;50.926;4.374;2023-02-15T10:26:22;46.87;;;21.70;;
19998;SDS011;10160;50.926;4.374;2023-02-15T10:34:40;37.37;;;19.57;;
19998;SDS011;10160;50.926;4.374;2023-02-15T10:37:23;45.07;;;22.23;;
19998;SDS011;10160;50.926;4.374;2023-02-15T10:47:53;45.75;;;22.15;;
19998;SDS011;10160;50.926;4.374;2023-02-15T10:50:55;45.60;;;23.35;;
19998;SDS011;10160;50.926;4.374;2023-02-15T10:53:37;44.63;;;22.42;;
19998;SDS011;10160;50.926;4.374;2023-02-15T11:04:25;40.15;;;21.50;;
19998;SDS011;10160;50.926;4.374;2023-02-15T11:06:53;46.78;;;23.92;;
19998;SDS011;10160;50.926;4.374;2023-02-15T11:09:23;46.45;;;24.42;;
19998;SDS011;10160;50.926;4.374;2023-02-15T11:11:55;49.60;;;24.27;;
19998;SDS011;10160;50.926;4.374;2023-02-15T11:14:36;44.30;;;22.67;;
19998;SDS011;10160;50.926;4.374;2023-02-15T11:17:24;45.13;;;24.15;;
19998;SDS011;10160;50.926;4.374;2023-02-15T11:20:22;40.03;;;21.02;;
19998;SDS011;10160;50.926;4.374;2023-02-15T11:22:56;49.03;;;23.23;;
19998;SDS011;10160;50.926;4.374;2023-02-15T11:25:28;46.42;;;23.00;;
19998;SDS011;10160;50.926;4.374;2023-02-15T11:27:56;44.42;;;23.05;;
19998;SDS011;10160;50.926;4.374;2023-02-15T11:30:23;44.42;;;23.83;;
19998;SDS011;10160;50.926;4.374;2023-02-15T11:32:56;49.58;;;24.00;;
19998;SDS011;10160;50.926;4.374;2023-02-15T11:35:35;45.17;;;23.27;;
19998;SDS011;10160;50.926;4.374;2023-02-15T11:38:40;44.58;;;22.42;;
19998;SDS011;10160;50.926;4.374;2023-02-15T11:41:03;44.22;;;21.92;;
19998;SDS011;10160;50.926;4.374;2023-02-15T11:46:45;43.30;;;22.70;;
19998;SDS011;10160;50.926;4.374;2023-02-15T11:49:22;48.80;;;24.52;;
19998;SDS011;10160;50.926;4.374;2023-02-15T11:51:48;43.75;;;24.15;;
19998;SDS011;10160;50.926;4.374;2023-02-15T11:54:17;41.17;;;21.98;;
19998;SDS011;10160;50.926;4.374;2023-02-15T11:56:48;43.60;;;23.95;;
19998;SDS011;10160;50.926;4.374;2023-02-15T11:59:18;43.88;;;23.60;;
19998;SDS011;10160;50.926;4.374;2023-02-15T12:01:52;49.22;;;25.13;;
19998;SDS011;10160;50.926;4.374;2023-02-15T12:04:32;49.95;;;25.95;;
19998;SDS011;10160;50.926;4.374;2023-02-15T12:12:36;52.17;;;26.48;;
19998;SDS011;10160;50.926;4.374;2023-02-15T12:15:12;45.90;;;26.08;;
19998;SDS011;10160;50.926;4.374;2023-02-15T12:17:39;45.45;;;25.23;;
19998;SDS011;10160;50.926;4.374;2023-02-15T12:22:38;55.53;;;27.10;;
19998;SDS011;10160;50.926;4.374;2023-02-15T12:25:20;49.97;;;26.48;;
19998;SDS011;10160;50.926;4.374;2023-02-15T12:27:47;50.42;;;26.63;;
19998;SDS011;10160;50.926;4.374;2023-02-15T12:30:21;48.42;;;26.08;;
19998;SDS011;10160;50.926;4.374;2023-02-15T12:32:50;49.97;;;27.63;;
19998;SDS011;10160;50.926;4.374;2023-02-15T12:35:26;50.58;;;28.10;;
19998;SDS011;10160;50.926;4.374;2023-02-15T12:40:45;53.47;;;27.45;;
19998;SDS011;10160;50.926;4.374;2023-02-15T12:43:31;54.83;;;27.55;;
19998;SDS011;10160;50.926;4.374;2023-02-15T12:46:21;50.80;;;26.63;;
19998;SDS011;10160;50.926;4.374;2023-02-15T12:49:34;54.47;;;26.23;;
19998;SDS011;10160;50.926;4.374;2023-02-15T12:54:21;51.53;;;26.35;;
19998;SDS011;10160;50.926;4.374;2023-02-15T12:56:59;50.08;;;28.52;;
19998;SDS011;10160;50.926;4.374;2023-02-15T12:59:49;48.45;;;27.50;;
19998;SDS011;10160;50.926;4.374;2023-02-15T13:02:21;54.05;;;27.98;;
19998;SDS011;10160;50.926;4.374;2023-02-15T13:05:04;54.40;;;27.85;;
19998;SDS011;10160;50.926;4.374;2023-02-15T13:07:49;52.83;;;28.35;;
19998;SDS011;10160;50.926;4.374;2023-02-15T13:10:20;46.45;;;25.73;;
19998;SDS011;10160;50.926;4.374;2023-02-15T13:12:49;49.30;;;27.35;;
19998;SDS011;10160;50.926;4.374;2023-02-15T13:15:38;48.67;;;27.10;;
19998;SDS011;10160;50.926;4.374;2023-02-15T13:18:10;49.08;;;27.38;;
19998;SDS011;10160;50.926;4.374;2023-02-15T13:20:40;52.00;;;26.90;;
19998;SDS011;10160;50.926;4.374;2023-02-15T13:23:29;51.55;;;26.50;;
19998;SDS011;10160;50.926;4.374;2023-02-15T13:25:54;55.90;;;28.85;;
19998;SDS011;10160;50.926;4.374;2023-02-15T13:28:24;52.72;;;27.30;;
19998;SDS011;10160;50.926;4.374;2023-02-15T13:30:56;54.08;;;26.70;;
19998;SDS011;10160;50.926;4.374;2023-02-15T13:33:27;52.83;;;28.42;;
19998;SDS011;10160;50.926;4.374;2023-02-15T13:36:03;52.63;;;28.00;;
19998;SDS011;10160;50.926;4.374;2023-02-15T13:41:12;48.33;;;26.60;;
19998;SDS011;10160;50.926;4.374;2023-02-15T13:52:22;56.15;;;26.23;;
19998;SDS011;10160;50.926;4.374;2023-02-15T13:57:46;59.70;;;28.42;;
19998;SDS011;10160;50.926;4.374;2023-02-15T14:06:17;53.42;;;27.40;;
19998;SDS011;10160;50.926;4.374;2023-02-15T14:09:06;57.75;;;28.20;;
19998;SDS011;10160;50.926;4.374;2023-02-15T14:14:58;47.33;;;25.42;;
19998;SDS011;10160;50.926;4.374;2023-02-15T14:20:20;49.72;;;25.88;;
19998;SDS011;10160;50.926;4.374;2023-02-15T14:25:33;43.33;;;22.50;;
19998;SDS011;10160;50.926;4.374;2023-02-15T14:31:02;47.83;;;26.45;;
19998;SDS011;10160;50.926;4.374;2023-02-15T14:33:41;47.42;;;26.33;;
19998;SDS011;10160;50.926;4.374;2023-02-15T14:36:18;48.80;;;27.75;;
19998;SDS011;10160;50.926;4.374;2023-02-15T14:41:30;54.85;;;29.95;;
19998;SDS011;10160;50.926;4.374;2023-02-15T14:49:38;57.15;;;28.02;;
19998;SDS011;10160;50.926;4.374;2023-02-15T14:59:35;47.30;;;28.40;;
19998;SDS011;10160;50.926;4.374;2023-02-15T15:28:06;59.83;;;30.67;;
19998;SDS011;10160;50.926;4.374;2023-02-15T15:33:20;55.30;;;31.20;;
19998;SDS011;10160;50.926;4.374;2023-02-15T15:41:43;60.30;;;31.95;;
19998;SDS011;10160;50.926;4.374;2023-02-15T15:47:21;58.77;;;30.10;;
19998;SDS011;10160;50.926;4.374;2023-02-15T15:49:54;63.27;;;31.47;;
19998;SDS011;10160;50.926;4.374;2023-02-15T15:52:22;61.87;;;31.87;;
19998;SDS011;10160;50.926;4.374;2023-02-15T15:54:50;60.67;;;33.73;;
19998;SDS011;10160;50.926;4.374;2023-02-15T15:57:33;62.60;;;31.50;;
19998;SDS011;10160;50.926;4.374;2023-02-15T16:00:03;60.50;;;32.57;;
19998;SDS011;10160;50.926;4.374;2023-02-15T16:02:50;57.87;;;32.47;;
19998;SDS011;10160;50.926;4.374;2023-02-15T16:05:17;57.27;;;30.93;;
19998;SDS011;10160;50.926;4.374;2023-02-15T16:07:43;58.50;;;30.17;;
19998;SDS011;10160;50.926;4.374;2023-02-15T16:10:19;59.13;;;32.67;;
19998;SDS011;10160;50.926;4.374;2023-02-15T16:12:50;56.37;;;31.73;;
19998;SDS011;10160;50.926;4.374;2023-02-15T16:15:24;68.07;;;33.20;;
19998;SDS011;10160;50.926;4.374;2023-02-15T16:17:53;58.10;;;31.17;;
19998;SDS011;10160;50.926;4.374;2023-02-15T16:20:31;54.13;;;29.10;;
19998;SDS011;10160;50.926;4.374;2023-02-15T16:23:12;61.00;;;28.53;;
19998;SDS011;10160;50.926;4.374;2023-02-15T16:26:17;57.77;;;29.87;;
19998;SDS011;10160;50.926;4.374;2023-02-15T16:28:50;60.27;;;30.70;;
19998;SDS011;10160;50.926;4.374;2023-02-15T16:31:18;57.93;;;32.23;;
19998;SDS011;10160;50.926;4.374;2023-02-15T16:33:47;59.77;;;32.33;;
19998;SDS011;10160;50.926;4.374;2023-02-15T16:36:26;63.27;;;32.40;;
19998;SDS011;10160;50.926;4.374;2023-02-15T16:41:22;59.23;;;29.87;;
19998;SDS011;10160;50.926;4.374;2023-02-15T16:43:52;61.13;;;29.13;;
19998;SDS011;10160;50.926;4.374;2023-02-15T16:46:30;56.57;;;30.53;;
19998;SDS011;10160;50.926;4.374;2023-02-15T16:48:58;57.23;;;28.27;;
19998;SDS011;10160;50.926;4.374;2023-02-15T16:51:31;53.97;;;27.03;;
19998;SDS011;10160;50.926;4.374;2023-02-15T16:54:07;54.63;;;28.23;;
19998;SDS011;10160;50.926;4.374;2023-02-15T16:56:43;53.03;;;26.67;;
19998;SDS011;10160;50.926;4.374;2023-02-15T16:59:17;58.67;;;27.97;;
19998;SDS011;10160;50.926;4.374;2023-02-15T17:01:53;53.57;;;28.20;;
19998;SDS011;10160;50.926;4.374;2023-02-15T17:04:26;54.63;;;26.37;;
19998;SDS011;10160;50.926;4.374;2023-02-15T17:07:04;57.83;;;28.13;;
19998;SDS011;10160;50.926;4.374;2023-02-15T17:09:31;47.00;;;23.00;;
19998;SDS011;10160;50.926;4.374;2023-02-15T17:11:58;54.00;;;27.00;;
19998;SDS011;10160;50.926;4.374;2023-02-15T17:14:27;57.10;;;29.60;;
19998;SDS011;10160;50.926;4.374;2023-02-15T17:17:00;58.77;;;29.40;;
19998;SDS011;10160;50.926;4.374;2023-02-15T17:19:33;64.33;;;29.80;;
19998;SDS011;10160;50.926;4.374;2023-02-15T17:22:19;56.57;;;28.37;;
19998;SDS011;10160;50.926;4.374;2023-02-15T17:24:57;63.43;;;30.93;;
19998;SDS011;10160;50.926;4.374;2023-02-15T17:27:25;64.03;;;31.93;;
19998;SDS011;10160;50.926;4.374;2023-02-15T17:30:00;73.03;;;34.00;;
19998;SDS011;10160;50.926;4.374;2023-02-15T17:32:28;70.43;;;33.87;;
19998;SDS011;10160;50.926;4.374;2023-02-15T17:38:00;73.80;;;36.83;;
19998;SDS011;10160;50.926;4.374;2023-02-15T17:40:45;72.97;;;35.57;;
19998;SDS011;10160;50.926;4.374;2023-02-15T17:43:12;73.70;;;36.53;;
19998;SDS011;10160;50.926;4.374;2023-02-15T17:45:46;72.60;;;35.97;;
19998;SDS011;10160;50.926;4.374;2023-02-15T17:48:35;77.70;;;36.93;;
19998;SDS011;10160;50.926;4.374;2023-02-15T17:51:04;70.83;;;35.17;;
19998;SDS011;10160;50.926;4.374;2023-02-15T17:53:36;72.13;;;35.77;;